sensor_id;sensor_type;location;lat;lon;timestamp;temperature;humidity
66213;SHT31;53015;50.046;8.238;2023-05-10T00:02:11;14.16;96.90
66213;SHT31;53015;50.046;8.238;2023-05-10T00:04:38;14.09;96.53
66213;SHT31;53015;50.046;8.238;2023-05-10T00:07:04;14.06;97.08
66213;SHT31;53015;50.046;8.238;2023-05-10T00:09:29;14.05;96.35
66213;SHT31;53015;50.046;8.238;2023-05-10T00:11:55;14.08;97.09
66213;SHT31;53015;50.046;8.238;2023-05-10T00:14:20;14.05;97.02
66213;SHT31;53015;50.046;8.238;2023-05-10T00:16:46;14.09;97.40
66213;SHT31;53015;50.046;8.238;2023-05-10T00:19:12;14.06;97.35
66213;SHT31;53015;50.046;8.238;2023-05-10T00:21:38;13.95;97.12
66213;SHT31;53015;50.046;8.238;2023-05-10T00:24:04;14.12;96.84
66213;SHT31;53015;50.046;8.238;2023-05-10T00:26:30;14.05;96.64
66213;SHT31;53015;50.046;8.238;2023-05-10T00:28:55;13.94;97.16
66213;SHT31;53015;50.046;8.238;2023-05-10T00:31:21;13.90;97.01
66213;SHT31;53015;50.046;8.238;2023-05-10T00:33:46;13.90;96.45
66213;SHT31;53015;50.046;8.238;2023-05-10T00:36:12;13.98;96.99
66213;SHT31;53015;50.046;8.238;2023-05-10T00:38:39;13.98;96.34
66213;SHT31;53015;50.046;8.238;2023-05-10T00:41:15;14.05;96.18
66213;SHT31;53015;50.046;8.238;2023-05-10T00:43:40;13.98;96.59
66213;SHT31;53015;50.046;8.238;2023-05-10T00:46:06;14.02;96.37
66213;SHT31;53015;50.046;8.238;2023-05-10T00:48:31;14.05;96.92
66213;SHT31;53015;50.046;8.238;2023-05-10T00:50:57;13.99;96.38
66213;SHT31;53015;50.046;8.238;2023-05-10T00:53:23;14.09;96.41
66213;SHT31;53015;50.046;8.238;2023-05-10T00:55:51;14.19;96.66
66213;SHT31;53015;50.046;8.238;2023-05-10T00:58:17;14.15;96.12
66213;SHT31;53015;50.046;8.238;2023-05-10T01:00:42;14.05;96.24
66213;SHT31;53015;50.046;8.238;2023-05-10T01:03:08;14.13;96.11
66213;SHT31;53015;50.046;8.238;2023-05-10T01:05:34;14.02;96.11
66213;SHT31;53015;50.046;8.238;2023-05-10T01:08:00;13.83;96.26
66213;SHT31;53015;50.046;8.238;2023-05-10T01:10:25;13.83;96.58
66213;SHT31;53015;50.046;8.238;2023-05-10T01:12:52;13.74;97.12
66213;SHT31;53015;50.046;8.238;2023-05-10T01:15:18;13.81;96.56
66213;SHT31;53015;50.046;8.238;2023-05-10T01:17:46;13.75;96.81
66213;SHT31;53015;50.046;8.238;2023-05-10T01:20:12;13.79;97.10
66213;SHT31;53015;50.046;8.238;2023-05-10T01:22:50;13.71;96.86
66213;SHT31;53015;50.046;8.238;2023-05-10T01:28:42;13.94;97.00
66213;SHT31;53015;50.046;8.238;2023-05-10T01:31:30;13.89;96.68
66213;SHT31;53015;50.046;8.238;2023-05-10T01:34:03;13.94;96.72
66213;SHT31;53015;50.046;8.238;2023-05-10T01:36:32;13.95;96.80
66213;SHT31;53015;50.046;8.238;2023-05-10T01:39:02;14.04;96.53
66213;SHT31;53015;50.046;8.238;2023-05-10T01:41:36;13.86;96.70
66213;SHT31;53015;50.046;8.238;2023-05-10T01:44:10;13.81;96.68
66213;SHT31;53015;50.046;8.238;2023-05-10T01:46:38;13.72;96.00
66213;SHT31;53015;50.046;8.238;2023-05-10T01:49:09;13.77;96.60
66213;SHT31;53015;50.046;8.238;2023-05-10T01:51:39;13.74;96.91
66213;SHT31;53015;50.046;8.238;2023-05-10T01:54:07;13.75;96.54
66213;SHT31;53015;50.046;8.238;2023-05-10T01:56:35;13.69;96.88
66213;SHT31;53015;50.046;8.238;2023-05-10T01:59:06;13.81;96.38
66213;SHT31;53015;50.046;8.238;2023-05-10T02:01:33;13.77;96.73
66213;SHT31;53015;50.046;8.238;2023-05-10T02:04:01;13.86;95.99
66213;SHT31;53015;50.046;8.238;2023-05-10T02:06:30;13.95;96.51
66213;SHT31;53015;50.046;8.238;2023-05-10T02:08:57;14.01;96.50
66213;SHT31;53015;50.046;8.238;2023-05-10T02:11:23;14.05;96.37
66213;SHT31;53015;50.046;8.238;2023-05-10T02:13:50;13.98;96.34
66213;SHT31;53015;50.046;8.238;2023-05-10T02:16:18;13.96;96.54
66213;SHT31;53015;50.046;8.238;2023-05-10T02:18:48;13.90;96.92
66213;SHT31;53015;50.046;8.238;2023-05-10T02:21:15;13.89;96.62
66213;SHT31;53015;50.046;8.238;2023-05-10T02:23:43;13.94;96.76
66213;SHT31;53015;50.046;8.238;2023-05-10T02:26:10;13.99;96.68
66213;SHT31;53015;50.046;8.238;2023-05-10T02:28:36;13.86;96.87
66213;SHT31;53015;50.046;8.238;2023-05-10T02:31:02;13.90;96.74
66213;SHT31;53015;50.046;8.238;2023-05-10T02:33:30;13.90;96.70
66213;SHT31;53015;50.046;8.238;2023-05-10T02:35:56;13.90;96.65
66213;SHT31;53015;50.046;8.238;2023-05-10T02:38:22;13.88;96.49
66213;SHT31;53015;50.046;8.238;2023-05-10T02:40:50;13.90;96.24
66213;SHT31;53015;50.046;8.238;2023-05-10T02:43:17;13.89;96.23
66213;SHT31;53015;50.046;8.238;2023-05-10T02:45:47;13.98;95.80
66213;SHT31;53015;50.046;8.238;2023-05-10T02:48:13;13.95;95.91
66213;SHT31;53015;50.046;8.238;2023-05-10T02:50:42;13.92;96.24
66213;SHT31;53015;50.046;8.238;2023-05-10T02:53:10;13.98;95.56
66213;SHT31;53015;50.046;8.238;2023-05-10T02:55:40;13.83;94.82
66213;SHT31;53015;50.046;8.238;2023-05-10T02:58:07;13.61;96.28
66213;SHT31;53015;50.046;8.238;2023-05-10T03:00:33;13.57;96.45
66213;SHT31;53015;50.046;8.238;2023-05-10T03:02:59;13.58;96.54
66213;SHT31;53015;50.046;8.238;2023-05-10T03:05:25;13.65;96.29
66213;SHT31;53015;50.046;8.238;2023-05-10T03:07:51;13.68;96.07
66213;SHT31;53015;50.046;8.238;2023-05-10T03:10:18;13.75;96.22
66213;SHT31;53015;50.046;8.238;2023-05-10T03:12:55;13.88;96.22
66213;SHT31;53015;50.046;8.238;2023-05-10T03:15:31;13.90;96.36
66213;SHT31;53015;50.046;8.238;2023-05-10T03:18:01;13.86;96.22
66213;SHT31;53015;50.046;8.238;2023-05-10T03:20:31;13.95;96.26
66213;SHT31;53015;50.046;8.238;2023-05-10T03:23:01;13.99;96.25
66213;SHT31;53015;50.046;8.238;2023-05-10T03:25:29;14.05;95.99
66213;SHT31;53015;50.046;8.238;2023-05-10T03:27:56;14.08;95.83
66213;SHT31;53015;50.046;8.238;2023-05-10T03:30:24;14.10;95.99
66213;SHT31;53015;50.046;8.238;2023-05-10T03:32:50;14.10;95.52
66213;SHT31;53015;50.046;8.238;2023-05-10T03:35:15;14.06;96.03
66213;SHT31;53015;50.046;8.238;2023-05-10T03:37:41;13.95;96.04
66213;SHT31;53015;50.046;8.238;2023-05-10T03:40:07;13.99;96.08
66213;SHT31;53015;50.046;8.238;2023-05-10T03:42:33;14.06;96.19
66213;SHT31;53015;50.046;8.238;2023-05-10T03:44:59;13.94;96.61
66213;SHT31;53015;50.046;8.238;2023-05-10T03:47:26;13.89;96.10
66213;SHT31;53015;50.046;8.238;2023-05-10T03:49:52;13.96;96.34
66213;SHT31;53015;50.046;8.238;2023-05-10T03:52:17;13.85;96.53
66213;SHT31;53015;50.046;8.238;2023-05-10T03:54:43;13.94;96.65
66213;SHT31;53015;50.046;8.238;2023-05-10T03:57:08;14.01;96.46
66213;SHT31;53015;50.046;8.238;2023-05-10T03:59:34;13.95;96.71
66213;SHT31;53015;50.046;8.238;2023-05-10T04:01:59;13.95;96.90
66213;SHT31;53015;50.046;8.238;2023-05-10T04:04:26;13.90;96.30
66213;SHT31;53015;50.046;8.238;2023-05-10T04:06:51;13.81;95.62
66213;SHT31;53015;50.046;8.238;2023-05-10T04:09:17;13.92;96.27
66213;SHT31;53015;50.046;8.238;2023-05-10T04:11:43;13.81;96.23
66213;SHT31;53015;50.046;8.238;2023-05-10T04:14:09;13.75;96.41
66213;SHT31;53015;50.046;8.238;2023-05-10T04:16:34;13.82;96.54
66213;SHT31;53015;50.046;8.238;2023-05-10T04:19:00;13.85;96.34
66213;SHT31;53015;50.046;8.238;2023-05-10T04:21:27;13.90;96.47
66213;SHT31;53015;50.046;8.238;2023-05-10T04:23:52;13.94;96.78
66213;SHT31;53015;50.046;8.238;2023-05-10T04:26:18;13.98;96.64
66213;SHT31;53015;50.046;8.238;2023-05-10T04:28:43;14.05;96.02
66213;SHT31;53015;50.046;8.238;2023-05-10T04:31:09;14.02;95.86
66213;SHT31;53015;50.046;8.238;2023-05-10T04:33:36;14.02;96.08
66213;SHT31;53015;50.046;8.238;2023-05-10T04:36:04;14.04;96.44
66213;SHT31;53015;50.046;8.238;2023-05-10T04:38:31;14.05;96.43
66213;SHT31;53015;50.046;8.238;2023-05-10T04:41:04;13.92;96.65
66213;SHT31;53015;50.046;8.238;2023-05-10T04:43:29;13.82;96.03
66213;SHT31;53015;50.046;8.238;2023-05-10T04:45:56;13.94;96.54
66213;SHT31;53015;50.046;8.238;2023-05-10T04:48:21;13.90;96.87
66213;SHT31;53015;50.046;8.238;2023-05-10T04:50:47;13.90;96.87
66213;SHT31;53015;50.046;8.238;2023-05-10T04:53:12;13.88;97.00
66213;SHT31;53015;50.046;8.238;2023-05-10T04:55:39;13.86;96.69
66213;SHT31;53015;50.046;8.238;2023-05-10T04:58:04;13.88;96.68
66213;SHT31;53015;50.046;8.238;2023-05-10T05:00:30;13.85;96.21
66213;SHT31;53015;50.046;8.238;2023-05-10T05:02:55;13.90;96.03
66213;SHT31;53015;50.046;8.238;2023-05-10T05:05:21;14.04;96.37
66213;SHT31;53015;50.046;8.238;2023-05-10T05:07:47;14.10;95.98
66213;SHT31;53015;50.046;8.238;2023-05-10T05:10:12;14.04;95.24
66213;SHT31;53015;50.046;8.238;2023-05-10T05:12:39;14.12;95.72
66213;SHT31;53015;50.046;8.238;2023-05-10T05:15:05;14.04;95.90
66213;SHT31;53015;50.046;8.238;2023-05-10T05:17:31;14.10;95.84
66213;SHT31;53015;50.046;8.238;2023-05-10T05:19:56;14.01;95.51
66213;SHT31;53015;50.046;8.238;2023-05-10T05:22:22;13.90;95.56
66213;SHT31;53015;50.046;8.238;2023-05-10T05:24:48;13.92;95.54
66213;SHT31;53015;50.046;8.238;2023-05-10T05:27:13;13.98;95.70
66213;SHT31;53015;50.046;8.238;2023-05-10T05:29:40;13.98;95.62
66213;SHT31;53015;50.046;8.238;2023-05-10T05:32:06;14.13;95.67
66213;SHT31;53015;50.046;8.238;2023-05-10T05:34:31;14.12;95.54
66213;SHT31;53015;50.046;8.238;2023-05-10T05:36:57;14.16;94.56
66213;SHT31;53015;50.046;8.238;2023-05-10T05:39:22;14.13;95.01
66213;SHT31;53015;50.046;8.238;2023-05-10T05:41:48;14.16;93.46
66213;SHT31;53015;50.046;8.238;2023-05-10T05:44:13;14.09;94.39
66213;SHT31;53015;50.046;8.238;2023-05-10T05:46:40;14.09;94.90
66213;SHT31;53015;50.046;8.238;2023-05-10T05:49:05;14.10;94.32
66213;SHT31;53015;50.046;8.238;2023-05-10T05:51:31;14.12;94.48
66213;SHT31;53015;50.046;8.238;2023-05-10T05:53:56;14.08;94.86
66213;SHT31;53015;50.046;8.238;2023-05-10T05:56:22;14.12;94.99
66213;SHT31;53015;50.046;8.238;2023-05-10T05:58:47;14.22;94.65
66213;SHT31;53015;50.046;8.238;2023-05-10T06:01:13;14.16;94.51
66213;SHT31;53015;50.046;8.238;2023-05-10T06:03:40;14.23;95.06
66213;SHT31;53015;50.046;8.238;2023-05-10T06:06:06;14.26;94.98
66213;SHT31;53015;50.046;8.238;2023-05-10T06:08:34;14.20;94.69
66213;SHT31;53015;50.046;8.238;2023-05-10T06:11:00;14.09;95.07
66213;SHT31;53015;50.046;8.238;2023-05-10T06:13:26;14.01;94.43
66213;SHT31;53015;50.046;8.238;2023-05-10T06:15:51;14.19;94.97
66213;SHT31;53015;50.046;8.238;2023-05-10T06:18:17;14.24;95.11
66213;SHT31;53015;50.046;8.238;2023-05-10T06:20:44;14.34;94.35
66213;SHT31;53015;50.046;8.238;2023-05-10T06:23:09;14.50;94.05
66213;SHT31;53015;50.046;8.238;2023-05-10T06:25:35;14.65;93.70
66213;SHT31;53015;50.046;8.238;2023-05-10T06:28:00;14.81;91.90
66213;SHT31;53015;50.046;8.238;2023-05-10T06:30:26;14.93;92.77
66213;SHT31;53015;50.046;8.238;2023-05-10T06:32:51;14.87;92.24
66213;SHT31;53015;50.046;8.238;2023-05-10T06:35:17;15.00;92.35
66213;SHT31;53015;50.046;8.238;2023-05-10T06:37:44;15.18;92.48
66213;SHT31;53015;50.046;8.238;2023-05-10T06:40:10;15.30;91.27
66213;SHT31;53015;50.046;8.238;2023-05-10T06:42:35;15.27;91.54
66213;SHT31;53015;50.046;8.238;2023-05-10T06:45:01;15.19;90.91
66213;SHT31;53015;50.046;8.238;2023-05-10T06:47:26;15.20;91.25
66213;SHT31;53015;50.046;8.238;2023-05-10T06:49:52;15.19;90.76
66213;SHT31;53015;50.046;8.238;2023-05-10T06:52:17;15.26;90.64
66213;SHT31;53015;50.046;8.238;2023-05-10T06:54:44;15.36;90.97
66213;SHT31;53015;50.046;8.238;2023-05-10T06:57:10;15.57;90.37
66213;SHT31;53015;50.046;8.238;2023-05-10T06:59:35;15.64;88.80
66213;SHT31;53015;50.046;8.238;2023-05-10T07:02:01;15.81;89.73
66213;SHT31;53015;50.046;8.238;2023-05-10T07:04:26;15.88;89.90
66213;SHT31;53015;50.046;8.238;2023-05-10T07:06:52;16.01;88.93
66213;SHT31;53015;50.046;8.238;2023-05-10T07:09:17;15.88;89.39
66213;SHT31;53015;50.046;8.238;2023-05-10T07:11:44;16.09;89.15
66213;SHT31;53015;50.046;8.238;2023-05-10T07:14:10;16.20;88.52
66213;SHT31;53015;50.046;8.238;2023-05-10T07:16:35;16.33;88.80
66213;SHT31;53015;50.046;8.238;2023-05-10T07:19:00;16.29;88.23
66213;SHT31;53015;50.046;8.238;2023-05-10T07:21:26;16.39;87.51
66213;SHT31;53015;50.046;8.238;2023-05-10T07:23:51;16.42;87.87
66213;SHT31;53015;50.046;8.238;2023-05-10T07:26:17;16.54;87.17
66213;SHT31;53015;50.046;8.238;2023-05-10T07:28:44;16.64;87.12
66213;SHT31;53015;50.046;8.238;2023-05-10T07:31:09;16.80;86.54
66213;SHT31;53015;50.046;8.238;2023-05-10T07:33:35;16.84;85.96
66213;SHT31;53015;50.046;8.238;2023-05-10T07:36:00;17.11;84.39
66213;SHT31;53015;50.046;8.238;2023-05-10T07:38:26;17.19;85.43
66213;SHT31;53015;50.046;8.238;2023-05-10T07:40:51;17.21;85.70
66213;SHT31;53015;50.046;8.238;2023-05-10T07:43:17;17.10;86.57
66213;SHT31;53015;50.046;8.238;2023-05-10T07:45:43;16.80;84.94
66213;SHT31;53015;50.046;8.238;2023-05-10T07:48:09;16.68;87.02
66213;SHT31;53015;50.046;8.238;2023-05-10T07:50:34;16.56;85.58
66213;SHT31;53015;50.046;8.238;2023-05-10T07:53:00;16.40;87.55
66213;SHT31;53015;50.046;8.238;2023-05-10T07:55:25;16.36;85.82
66213;SHT31;53015;50.046;8.238;2023-05-10T07:57:51;16.40;86.32
66213;SHT31;53015;50.046;8.238;2023-05-10T08:00:18;16.33;84.83
66213;SHT31;53015;50.046;8.238;2023-05-10T08:02:45;16.42;87.19
66213;SHT31;53015;50.046;8.238;2023-05-10T08:05:10;16.42;85.24
66213;SHT31;53015;50.046;8.238;2023-05-10T08:07:36;16.45;84.99
66213;SHT31;53015;50.046;8.238;2023-05-10T08:10:01;16.47;83.98
66213;SHT31;53015;50.046;8.238;2023-05-10T08:12:27;16.57;83.59
66213;SHT31;53015;50.046;8.238;2023-05-10T08:14:52;16.59;84.65
66213;SHT31;53015;50.046;8.238;2023-05-10T08:17:18;16.56;83.16
66213;SHT31;53015;50.046;8.238;2023-05-10T08:19:44;16.87;84.80
66213;SHT31;53015;50.046;8.238;2023-05-10T08:22:10;16.98;84.21
66213;SHT31;53015;50.046;8.238;2023-05-10T08:24:35;17.33;81.87
66213;SHT31;53015;50.046;8.238;2023-05-10T08:27:01;17.71;82.80
66213;SHT31;53015;50.046;8.238;2023-05-10T08:29:26;17.74;79.24
66213;SHT31;53015;50.046;8.238;2023-05-10T08:31:52;17.93;80.42
66213;SHT31;53015;50.046;8.238;2023-05-10T08:34:17;17.83;78.01
66213;SHT31;53015;50.046;8.238;2023-05-10T08:36:44;18.02;78.72
66213;SHT31;53015;50.046;8.238;2023-05-10T08:39:10;17.91;77.71
66213;SHT31;53015;50.046;8.238;2023-05-10T08:41:36;17.81;77.48
66213;SHT31;53015;50.046;8.238;2023-05-10T08:44:04;17.59;78.14
66213;SHT31;53015;50.046;8.238;2023-05-10T08:46:30;17.51;79.12
66213;SHT31;53015;50.046;8.238;2023-05-10T08:49:01;17.29;78.37
66213;SHT31;53015;50.046;8.238;2023-05-10T08:51:32;16.89;79.29
66213;SHT31;53015;50.046;8.238;2023-05-10T08:54:02;16.87;83.76
66213;SHT31;53015;50.046;8.238;2023-05-10T08:56:29;16.45;86.44
66213;SHT31;53015;50.046;8.238;2023-05-10T08:58:54;16.29;87.56
66213;SHT31;53015;50.046;8.238;2023-05-10T09:01:21;16.29;86.63
66213;SHT31;53015;50.046;8.238;2023-05-10T09:03:46;16.40;87.07
66213;SHT31;53015;50.046;8.238;2023-05-10T09:06:12;16.70;86.85
66213;SHT31;53015;50.046;8.238;2023-05-10T09:08:38;17.10;85.53
66213;SHT31;53015;50.046;8.238;2023-05-10T09:11:05;17.36;86.26
66213;SHT31;53015;50.046;8.238;2023-05-10T09:13:31;17.63;84.79
66213;SHT31;53015;50.046;8.238;2023-05-10T09:15:57;17.71;85.69
66213;SHT31;53015;50.046;8.238;2023-05-10T09:18:23;17.76;83.39
66213;SHT31;53015;50.046;8.238;2023-05-10T09:20:48;18.01;82.23
66213;SHT31;53015;50.046;8.238;2023-05-10T09:23:14;18.36;83.40
66213;SHT31;53015;50.046;8.238;2023-05-10T09:25:41;18.00;77.88
66213;SHT31;53015;50.046;8.238;2023-05-10T09:28:08;17.87;79.74
66213;SHT31;53015;50.046;8.238;2023-05-10T09:30:34;17.83;84.15
66213;SHT31;53015;50.046;8.238;2023-05-10T09:33:00;17.30;87.04
66213;SHT31;53015;50.046;8.238;2023-05-10T09:35:28;16.81;87.50
66213;SHT31;53015;50.046;8.238;2023-05-10T09:37:55;16.39;87.19
66213;SHT31;53015;50.046;8.238;2023-05-10T09:40:22;16.22;89.43
66213;SHT31;53015;50.046;8.238;2023-05-10T09:42:52;16.10;90.22
66213;SHT31;53015;50.046;8.238;2023-05-10T09:45:20;16.08;89.70
66213;SHT31;53015;50.046;8.238;2023-05-10T09:47:46;16.23;90.34
66213;SHT31;53015;50.046;8.238;2023-05-10T09:50:12;16.26;88.97
66213;SHT31;53015;50.046;8.238;2023-05-10T09:52:46;16.67;88.73
66213;SHT31;53015;50.046;8.238;2023-05-10T09:55:12;17.00;88.26
66213;SHT31;53015;50.046;8.238;2023-05-10T09:57:38;17.49;89.00
66213;SHT31;53015;50.046;8.238;2023-05-10T10:00:05;17.77;86.60
66213;SHT31;53015;50.046;8.238;2023-05-10T10:02:33;18.16;85.10
66213;SHT31;53015;50.046;8.238;2023-05-10T10:05:00;18.50;85.22
66213;SHT31;53015;50.046;8.238;2023-05-10T10:07:26;19.01;85.60
66213;SHT31;53015;50.046;8.238;2023-05-10T10:09:53;19.10;82.36
66213;SHT31;53015;50.046;8.238;2023-05-10T10:12:19;18.70;79.82
66213;SHT31;53015;50.046;8.238;2023-05-10T10:14:46;18.77;80.35
66213;SHT31;53015;50.046;8.238;2023-05-10T10:17:12;19.03;81.79
66213;SHT31;53015;50.046;8.238;2023-05-10T10:19:39;19.00;77.25
66213;SHT31;53015;50.046;8.238;2023-05-10T10:22:05;18.84;76.87
66213;SHT31;53015;50.046;8.238;2023-05-10T10:24:31;18.79;78.39
66213;SHT31;53015;50.046;8.238;2023-05-10T10:27:01;18.96;78.17
66213;SHT31;53015;50.046;8.238;2023-05-10T10:29:35;18.84;76.41
66213;SHT31;53015;50.046;8.238;2023-05-10T10:32:08;19.05;78.55
66213;SHT31;53015;50.046;8.238;2023-05-10T10:34:36;18.74;78.11
66213;SHT31;53015;50.046;8.238;2023-05-10T10:37:05;18.80;79.21
66213;SHT31;53015;50.046;8.238;2023-05-10T10:39:31;18.87;77.44
66213;SHT31;53015;50.046;8.238;2023-05-10T10:41:57;18.90;77.90
66213;SHT31;53015;50.046;8.238;2023-05-10T10:44:33;19.16;76.71
66213;SHT31;53015;50.046;8.238;2023-05-10T10:47:03;19.01;72.65
66213;SHT31;53015;50.046;8.238;2023-05-10T10:49:30;19.51;74.79
66213;SHT31;53015;50.046;8.238;2023-05-10T10:52:32;20.01;75.29
66213;SHT31;53015;50.046;8.238;2023-05-10T10:54:59;19.55;71.44
66213;SHT31;53015;50.046;8.238;2023-05-10T10:57:25;19.32;72.61
66213;SHT31;53015;50.046;8.238;2023-05-10T10:59:51;19.29;73.17
66213;SHT31;53015;50.046;8.238;2023-05-10T11:02:43;19.43;74.12
66213;SHT31;53015;50.046;8.238;2023-05-10T11:05:33;19.41;68.96
66213;SHT31;53015;50.046;8.238;2023-05-10T11:08:07;19.41;69.35
66213;SHT31;53015;50.046;8.238;2023-05-10T11:10:33;18.84;67.49
66213;SHT31;53015;50.046;8.238;2023-05-10T11:13:00;19.08;69.88
66213;SHT31;53015;50.046;8.238;2023-05-10T11:15:28;19.28;73.46
66213;SHT31;53015;50.046;8.238;2023-05-10T11:17:54;19.56;68.00
66213;SHT31;53015;50.046;8.238;2023-05-10T11:20:20;19.70;71.67
66213;SHT31;53015;50.046;8.238;2023-05-10T11:22:49;19.39;69.90
66213;SHT31;53015;50.046;8.238;2023-05-10T11:25:16;19.29;67.04
66213;SHT31;53015;50.046;8.238;2023-05-10T11:27:42;19.24;68.49
66213;SHT31;53015;50.046;8.238;2023-05-10T11:30:10;18.79;68.48
66213;SHT31;53015;50.046;8.238;2023-05-10T11:32:37;18.93;69.15
66213;SHT31;53015;50.046;8.238;2023-05-10T11:35:08;19.08;68.46
66213;SHT31;53015;50.046;8.238;2023-05-10T11:37:33;19.07;68.23
66213;SHT31;53015;50.046;8.238;2023-05-10T11:39:59;19.52;68.59
66213;SHT31;53015;50.046;8.238;2023-05-10T11:42:27;19.97;68.68
66213;SHT31;53015;50.046;8.238;2023-05-10T11:44:53;20.35;68.78
66213;SHT31;53015;50.046;8.238;2023-05-10T11:47:18;20.38;64.20
66213;SHT31;53015;50.046;8.238;2023-05-10T11:49:44;20.10;67.14
66213;SHT31;53015;50.046;8.238;2023-05-10T11:52:09;20.55;66.69
66213;SHT31;53015;50.046;8.238;2023-05-10T11:54:35;20.76;68.08
66213;SHT31;53015;50.046;8.238;2023-05-10T11:57:00;20.34;64.91
66213;SHT31;53015;50.046;8.238;2023-05-10T11:59:27;20.73;64.22
66213;SHT31;53015;50.046;8.238;2023-05-10T12:01:53;20.36;63.61
66213;SHT31;53015;50.046;8.238;2023-05-10T12:04:19;20.59;64.01
66213;SHT31;53015;50.046;8.238;2023-05-10T12:06:44;20.66;64.76
66213;SHT31;53015;50.046;8.238;2023-05-10T12:09:10;20.45;64.86
66213;SHT31;53015;50.046;8.238;2023-05-10T12:11:37;20.49;64.17
66213;SHT31;53015;50.046;8.238;2023-05-10T12:14:04;20.48;62.50
66213;SHT31;53015;50.046;8.238;2023-05-10T12:16:31;20.25;61.04
66213;SHT31;53015;50.046;8.238;2023-05-10T12:18:59;19.77;62.58
66213;SHT31;53015;50.046;8.238;2023-05-10T12:21:26;19.84;65.05
66213;SHT31;53015;50.046;8.238;2023-05-10T12:23:54;19.93;64.23
66213;SHT31;53015;50.046;8.238;2023-05-10T12:26:21;19.84;65.91
66213;SHT31;53015;50.046;8.238;2023-05-10T12:28:47;19.74;66.92
66213;SHT31;53015;50.046;8.238;2023-05-10T12:31:12;19.91;65.27
66213;SHT31;53015;50.046;8.238;2023-05-10T12:33:40;20.22;65.07
66213;SHT31;53015;50.046;8.238;2023-05-10T12:36:06;20.06;64.67
66213;SHT31;53015;50.046;8.238;2023-05-10T12:38:33;20.16;63.63
66213;SHT31;53015;50.046;8.238;2023-05-10T12:41:00;20.56;64.15
66213;SHT31;53015;50.046;8.238;2023-05-10T12:43:26;20.20;62.30
66213;SHT31;53015;50.046;8.238;2023-05-10T12:45:51;20.14;64.74
66213;SHT31;53015;50.046;8.238;2023-05-10T12:48:17;20.22;64.38
66213;SHT31;53015;50.046;8.238;2023-05-10T12:50:44;20.32;67.11
66213;SHT31;53015;50.046;8.238;2023-05-10T12:53:10;20.32;64.01
66213;SHT31;53015;50.046;8.238;2023-05-10T12:55:35;20.57;62.09
66213;SHT31;53015;50.046;8.238;2023-05-10T12:58:01;20.25;60.63
66213;SHT31;53015;50.046;8.238;2023-05-10T13:00:26;20.51;62.15
66213;SHT31;53015;50.046;8.238;2023-05-10T13:02:52;20.61;64.98
66213;SHT31;53015;50.046;8.238;2023-05-10T13:05:17;20.36;62.33
66213;SHT31;53015;50.046;8.238;2023-05-10T13:07:44;20.31;64.66
66213;SHT31;53015;50.046;8.238;2023-05-10T13:10:10;20.22;62.90
66213;SHT31;53015;50.046;8.238;2023-05-10T13:12:35;20.29;64.16
66213;SHT31;53015;50.046;8.238;2023-05-10T13:15:01;20.45;65.33
66213;SHT31;53015;50.046;8.238;2023-05-10T13:17:27;20.34;61.47
66213;SHT31;53015;50.046;8.238;2023-05-10T13:19:52;20.52;63.98
66213;SHT31;53015;50.046;8.238;2023-05-10T13:22:18;20.79;62.77
66213;SHT31;53015;50.046;8.238;2023-05-10T13:24:44;20.91;62.52
66213;SHT31;53015;50.046;8.238;2023-05-10T13:27:10;21.08;62.77
66213;SHT31;53015;50.046;8.238;2023-05-10T13:29:35;21.20;63.80
66213;SHT31;53015;50.046;8.238;2023-05-10T13:32:01;21.17;60.39
66213;SHT31;53015;50.046;8.238;2023-05-10T13:34:26;21.03;61.69
66213;SHT31;53015;50.046;8.238;2023-05-10T13:36:52;20.90;62.03
66213;SHT31;53015;50.046;8.238;2023-05-10T13:39:18;20.69;60.53
66213;SHT31;53015;50.046;8.238;2023-05-10T13:41:45;20.62;62.20
66213;SHT31;53015;50.046;8.238;2023-05-10T13:44:12;20.68;60.51
66213;SHT31;53015;50.046;8.238;2023-05-10T13:46:37;20.55;59.83
66213;SHT31;53015;50.046;8.238;2023-05-10T13:49:03;20.29;59.15
66213;SHT31;53015;50.046;8.238;2023-05-10T13:51:28;20.51;61.84
66213;SHT31;53015;50.046;8.238;2023-05-10T13:53:54;20.71;61.84
66213;SHT31;53015;50.046;8.238;2023-05-10T13:56:19;20.61;61.19
66213;SHT31;53015;50.046;8.238;2023-05-10T13:58:46;20.65;59.59
66213;SHT31;53015;50.046;8.238;2023-05-10T14:01:12;20.89;59.19
66213;SHT31;53015;50.046;8.238;2023-05-10T14:03:37;21.10;59.97
66213;SHT31;53015;50.046;8.238;2023-05-10T14:06:03;20.87;58.35
66213;SHT31;53015;50.046;8.238;2023-05-10T14:08:28;20.99;58.79
66213;SHT31;53015;50.046;8.238;2023-05-10T14:10:54;20.61;57.70
66213;SHT31;53015;50.046;8.238;2023-05-10T14:13:19;20.84;60.72
66213;SHT31;53015;50.046;8.238;2023-05-10T14:15:46;21.01;61.02
66213;SHT31;53015;50.046;8.238;2023-05-10T14:18:12;20.44;58.86
66213;SHT31;53015;50.046;8.238;2023-05-10T14:20:37;20.73;60.86
66213;SHT31;53015;50.046;8.238;2023-05-10T14:23:03;21.06;61.49
66213;SHT31;53015;50.046;8.238;2023-05-10T14:25:28;21.41;63.22
66213;SHT31;53015;50.046;8.238;2023-05-10T14:27:54;21.23;62.83
66213;SHT31;53015;50.046;8.238;2023-05-10T14:30:19;21.21;63.76
66213;SHT31;53015;50.046;8.238;2023-05-10T14:32:46;21.20;63.37
66213;SHT31;53015;50.046;8.238;2023-05-10T14:35:11;21.23;61.31
66213;SHT31;53015;50.046;8.238;2023-05-10T14:37:37;21.41;61.26
66213;SHT31;53015;50.046;8.238;2023-05-10T14:40:03;21.42;62.47
66213;SHT31;53015;50.046;8.238;2023-05-10T14:42:29;21.31;57.81
66213;SHT31;53015;50.046;8.238;2023-05-10T14:44:55;21.55;57.93
66213;SHT31;53015;50.046;8.238;2023-05-10T14:47:20;21.66;60.52
66213;SHT31;53015;50.046;8.238;2023-05-10T14:49:47;21.73;58.86
66213;SHT31;53015;50.046;8.238;2023-05-10T14:52:12;21.15;56.94
66213;SHT31;53015;50.046;8.238;2023-05-10T14:54:38;20.97;59.90
66213;SHT31;53015;50.046;8.238;2023-05-10T14:57:03;20.84;59.88
66213;SHT31;53015;50.046;8.238;2023-05-10T14:59:29;20.62;58.22
66213;SHT31;53015;50.046;8.238;2023-05-10T15:01:54;20.51;58.16
66213;SHT31;53015;50.046;8.238;2023-05-10T15:04:20;20.24;60.13
66213;SHT31;53015;50.046;8.238;2023-05-10T15:06:47;20.18;60.15
66213;SHT31;53015;50.046;8.238;2023-05-10T15:09:12;20.51;61.53
66213;SHT31;53015;50.046;8.238;2023-05-10T15:11:38;20.25;59.87
66213;SHT31;53015;50.046;8.238;2023-05-10T15:14:04;20.90;59.83
66213;SHT31;53015;50.046;8.238;2023-05-10T15:16:30;21.10;61.73
66213;SHT31;53015;50.046;8.238;2023-05-10T15:18:55;21.31;60.96
66213;SHT31;53015;50.046;8.238;2023-05-10T15:21:21;21.35;61.28
66213;SHT31;53015;50.046;8.238;2023-05-10T15:23:48;21.72;59.20
66213;SHT31;53015;50.046;8.238;2023-05-10T15:26:13;21.61;59.94
66213;SHT31;53015;50.046;8.238;2023-05-10T15:28:39;21.26;58.54
66213;SHT31;53015;50.046;8.238;2023-05-10T15:31:04;20.97;59.98